Time;durP1;ratioP1;P1;durP2;ratioP2;P2;SDS_P1;SDS_P2;PMS_P1;PMS_P2;Temp;Humidity;BMP_temperature;BMP_pressure;BME280_temperature;BME280_humidity;BME280_pressure;Samples;Min_cycle;Max_cycle;Signal;HPM_P1;HPM_P2
2021/12/04 00:02:24;;;;;;;13.23;11.75;;;5.80;99.90;;;;;;4984593;28;20177;-82
2021/12/04 00:04:52;;;;;;;7.90;6.75;;;5.80;99.90;;;;;;4984757;28;20607;-82
2021/12/04 00:07:18;;;;;;;12.60;10.10;;;5.80;99.90;;;;;;4966320;28;20054;-82
2021/12/04 00:09:46;;;;;;;9.82;8.85;;;5.80;99.90;;;;;;4984199;28;20034;-82
2021/12/04 00:12:12;;;;;;;15.48;13.52;;;5.70;99.90;;;;;;4983756;28;20181;-82
2021/12/04 00:14:38;;;;;;;14.05;10.48;;;5.70;99.90;;;;;;4984480;28;20148;-82
2021/12/04 00:17:05;;;;;;;11.80;9.95;;;5.70;99.90;;;;;;4984328;28;20093;-83
2021/12/04 00:19:32;;;;;;;14.13;12.38;;;5.70;99.90;;;;;;4966850;28;20046;-82
2021/12/04 00:21:59;;;;;;;9.55;7.90;;;5.70;99.90;;;;;;4949793;28;20117;-82
2021/12/04 00:24:25;;;;;;;11.18;9.93;;;5.70;99.90;;;;;;4984267;28;20046;-82
2021/12/04 00:26:53;;;;;;;12.57;8.63;;;5.70;99.90;;;;;;4983595;28;20054;-83
2021/12/04 00:29:20;;;;;;;11.80;8.73;;;5.70;99.90;;;;;;4994081;28;20049;-82
2021/12/04 00:31:51;;;;;;;17.48;9.82;;;5.70;99.90;;;;;;5004056;28;20049;-82
2021/12/04 00:34:20;;;;;;;13.38;8.85;;;5.70;99.90;;;;;;5004409;28;20092;-82
2021/12/04 00:50:17;;;;;;;11.75;10.70;;;5.70;99.90;;;;;;4984499;28;20132;-82
2021/12/04 00:52:43;;;;;;;14.57;10.48;;;5.70;99.90;;;;;;5002889;28;20042;-83
2021/12/04 00:55:09;;;;;;;7.63;7.03;;;5.70;99.90;;;;;;5003199;28;20053;-82
2021/12/04 00:57:34;;;;;;;12.93;9.95;;;5.70;99.90;;;;;;5003239;28;20037;-82
2021/12/04 01:00:00;;;;;;;10.57;9.57;;;5.70;99.90;;;;;;5002932;28;20076;-83
2021/12/04 01:02:27;;;;;;;9.40;8.30;;;5.70;99.90;;;;;;5003587;28;20509;-82
2021/12/04 01:04:53;;;;;;;13.52;12.38;;;5.70;99.90;;;;;;5003377;28;20038;-82
2021/12/04 01:07:22;;;;;;;13.63;10.15;;;5.70;99.90;;;;;;5002926;28;20581;-82
2021/12/04 01:09:47;;;;;;;14.48;9.45;;;5.80;99.90;;;;;;5004013;28;20038;-83
2021/12/04 01:12:13;;;;;;;12.20;7.18;;;5.70;99.90;;;;;;5002820;28;20116;-83
2021/12/04 01:14:39;;;;;;;13.48;9.95;;;5.80;99.90;;;;;;5003173;28;20662;-83
2021/12/04 01:17:05;;;;;;;10.65;8.48;;;5.70;99.90;;;;;;5003076;28;20066;-82
2021/12/04 01:19:31;;;;;;;13.35;12.13;;;5.80;99.90;;;;;;5003445;28;20076;-83
2021/12/04 01:21:58;;;;;;;9.48;7.88;;;5.80;99.90;;;;;;5003294;28;20038;-82
2021/12/04 01:24:24;;;;;;;22.15;12.52;;;5.70;99.90;;;;;;5006893;28;20096;-82
2021/12/04 01:26:49;;;;;;;14.30;11.27;;;5.80;99.90;;;;;;5007274;28;20549;-83
2021/12/04 01:29:16;;;;;;;15.20;9.32;;;5.70;99.90;;;;;;4995357;28;20126;-83
2021/12/04 01:31:42;;;;;;;7.97;7.30;;;5.70;99.90;;;;;;4987280;28;20117;-82
2021/12/04 01:34:08;;;;;;;13.32;10.25;;;5.70;99.90;;;;;;4986796;28;20121;-83
2021/12/04 01:36:34;;;;;;;10.57;9.55;;;5.70;99.90;;;;;;4986030;28;20133;-82
2021/12/04 01:39:00;;;;;;;11.50;9.95;;;5.70;99.90;;;;;;4986805;28;20050;-83
2021/12/04 01:41:26;;;;;;;10.25;9.02;;;5.80;99.90;;;;;;4986793;28;20070;-82
2021/12/04 01:43:52;;;;;;;7.18;6.70;;;5.70;99.90;;;;;;4986146;28;20458;-83
2021/12/04 01:46:18;;;;;;;8.98;8.18;;;5.70;99.90;;;;;;4987502;28;20050;-82
2021/12/04 01:48:43;;;;;;;17.65;10.05;;;5.80;99.90;;;;;;4969190;28;20045;-82
2021/12/04 01:51:09;;;;;;;14.07;10.73;;;5.70;99.90;;;;;;4986991;28;20560;-82
2021/12/04 01:53:35;;;;;;;11.75;8.57;;;5.70;99.90;;;;;;4985843;28;20046;-83
2021/12/04 01:56:03;;;;;;;10.95;9.85;;;5.80;99.90;;;;;;4986371;28;20054;-82
2021/12/04 01:58:29;;;;;;;10.00;9.07;;;5.70;99.90;;;;;;4986298;28;20038;-83
2021/12/04 02:00:56;;;;;;;11.90;10.90;;;5.70;99.90;;;;;;4986502;28;20105;-83
2021/12/04 02:03:22;;;;;;;8.45;7.60;;;5.70;99.90;;;;;;4986543;28;20050;-83
2021/12/04 02:05:49;;;;;;;9.95;9.25;;;5.80;99.90;;;;;;4984530;23;20046;-75
2021/12/04 02:08:17;;;;;;;14.23;10.45;;;5.70;99.90;;;;;;4965694;28;20093;-75
2021/12/04 02:10:45;;;;;;;14.77;6.30;;;5.80;99.90;;;;;;4985395;28;20035;-75
2021/12/04 02:13:11;;;;;;;11.55;9.10;;;5.70;99.90;;;;;;4968618;28;20510;-76
2021/12/04 02:15:36;;;;;;;9.80;8.80;;;5.70;99.90;;;;;;4986567;28;20043;-75
2021/12/04 02:18:05;;;;;;;18.45;10.82;;;5.70;99.90;;;;;;4968322;28;20093;-75
2021/12/04 02:20:33;;;;;;;11.23;8.43;;;5.70;99.90;;;;;;4986072;28;20083;-75
2021/12/04 02:23:00;;;;;;;17.65;8.52;;;5.70;99.90;;;;;;4984871;28;20050;-75
2021/12/04 02:25:25;;;;;;;11.13;9.10;;;5.80;99.90;;;;;;4986012;28;20042;-75
2021/12/04 02:27:51;;;;;;;10.75;9.50;;;5.70;99.90;;;;;;4985675;28;20406;-76
2021/12/04 02:30:21;;;;;;;7.82;6.82;;;5.80;99.90;;;;;;4985658;28;20042;-75
2021/12/04 02:32:47;;;;;;;15.85;11.02;;;5.70;99.90;;;;;;4987697;28;20080;-75
2021/12/04 02:35:15;;;;;;;15.70;10.27;;;5.80;99.90;;;;;;5004774;28;20038;-75
2021/12/04 02:37:41;;;;;;;12.45;9.50;;;5.80;99.90;;;;;;5004717;28;20054;-75
2021/12/04 02:40:10;;;;;;;13.90;11.32;;;5.80;99.90;;;;;;5005089;28;20045;-75
2021/12/04 02:42:37;;;;;;;12.15;8.30;;;5.80;99.90;;;;;;4988309;28;20054;-75
2021/12/04 02:45:05;;;;;;;10.10;9.23;;;5.80;99.90;;;;;;5005141;28;20108;-75
2021/12/04 02:47:31;;;;;;;13.75;9.02;;;5.70;99.90;;;;;;5005446;28;20071;-75
2021/12/04 02:49:57;;;;;;;9.48;7.35;;;5.70;99.90;;;;;;5005032;28;20741;-75
2021/12/04 02:52:24;;;;;;;11.30;6.45;;;5.80;99.90;;;;;;5004092;28;20073;-75
2021/12/04 02:54:51;;;;;;;10.50;9.32;;;5.80;99.90;;;;;;5005408;28;20041;-75
2021/12/04 02:57:19;;;;;;;12.25;9.35;;;5.80;99.90;;;;;;4987741;28;20042;-75
2021/12/04 02:59:46;;;;;;;11.50;8.13;;;5.80;99.90;;;;;;5004921;28;20041;-75
2021/12/04 03:02:19;;;;;;;12.00;10.80;;;5.80;99.90;;;;;;5004663;28;20052;-75
2021/12/04 03:04:46;;;;;;;;;;;5.80;99.90;;;;;;5005398;28;20048;-75
2021/12/04 03:07:12;;;;;;;10.55;7.72;;;5.80;99.90;;;;;;5003513;28;20304;-75
2021/12/04 03:09:38;;;;;;;8.25;7.55;;;5.80;99.90;;;;;;4987317;28;20095;-75
2021/12/04 03:12:05;;;;;;;9.48;8.20;;;5.80;99.90;;;;;;5004776;28;20041;-75
2021/12/04 03:14:31;;;;;;;10.50;8.13;;;5.80;99.90;;;;;;5004467;28;20482;-76
2021/12/04 03:16:57;;;;;;;11.50;9.43;;;5.80;99.90;;;;;;5004645;28;20042;-75
2021/12/04 03:19:24;;;;;;;13.15;11.02;;;5.80;99.90;;;;;;5004418;28;20502;-75
2021/12/04 03:21:49;;;;;;;19.45;9.77;;;5.80;99.90;;;;;;4986321;28;20050;-75
2021/12/04 03:24:17;;;;;;;16.70;10.43;;;5.70;99.90;;;;;;5004500;28;20394;-75
2021/12/04 03:26:45;;;;;;;11.25;10.23;;;5.80;99.90;;;;;;5004432;28;20128;-75
2021/12/04 03:29:14;;;;;;;12.23;8.45;;;5.70;99.90;;;;;;4994224;28;20409;-75
2021/12/04 03:42:30;;;;;;;26.40;11.63;;;5.80;99.90;;;;;;4984636;28;20054;-75
2021/12/04 03:44:55;;;;;;;11.23;10.10;;;5.70;99.90;;;;;;4983949;28;20034;-75
2021/12/04 03:47:22;;;;;;;10.57;8.43;;;5.70;99.90;;;;;;4984671;28;20045;-75
2021/12/04 03:49:49;;;;;;;8.35;7.68;;;5.70;99.90;;;;;;4985064;28;20042;-75
2021/12/04 03:52:15;;;;;;;8.73;7.88;;;5.70;99.90;;;;;;4983734;28;20085;-75
2021/12/04 03:54:41;;;;;;;9.68;8.68;;;5.70;99.90;;;;;;4984758;28;20044;-75
2021/12/04 03:57:07;;;;;;;12.13;10.85;;;5.80;99.90;;;;;;4966811;28;20050;-75
2021/12/04 03:59:39;;;;;;;14.57;9.73;;;5.80;99.90;;;;;;4984193;28;20255;-75
2021/12/04 04:02:07;;;;;;;;;;;5.70;99.90;;;;;;4984893;28;20054;-75
2021/12/04 04:04:33;;;;;;;9.70;8.38;;;5.80;99.90;;;;;;4967063;28;19976;-75
2021/12/04 04:06:59;;;;;;;9.65;8.80;;;5.70;99.90;;;;;;4983068;28;20559;-75
2021/12/04 04:09:26;;;;;;;13.98;7.43;;;5.80;99.90;;;;;;4984280;28;20082;-75
2021/12/04 04:11:51;;;;;;;10.48;9.35;;;5.80;99.90;;;;;;4967026;28;20122;-75
2021/12/04 04:14:17;;;;;;;13.57;11.40;;;5.70;99.90;;;;;;4967188;28;20106;-75
2021/12/04 04:16:43;;;;;;;13.68;9.70;;;5.70;99.90;;;;;;4984435;28;20082;-75
2021/12/04 04:19:09;;;;;;;7.68;6.82;;;5.70;99.90;;;;;;4966353;28;20039;-75
2021/12/04 04:21:39;;;;;;;13.52;8.95;;;5.80;99.90;;;;;;4983252;28;20574;-75
2021/12/04 04:24:06;;;;;;;12.05;9.57;;;5.70;99.90;;;;;;4966453;28;20562;-75
2021/12/04 04:26:32;;;;;;;9.52;8.63;;;5.70;99.90;;;;;;4984207;28;20146;-75
2021/12/04 04:28:58;;;;;;;9.07;6.93;;;5.70;99.90;;;;;;4990597;28;20057;-75
2021/12/04 04:31:23;;;;;;;14.38;9.98;;;5.70;99.90;;;;;;5003571;28;20046;-75
2021/12/04 04:33:49;;;;;;;7.15;6.45;;;5.70;99.90;;;;;;4986619;28;20050;-75
2021/12/04 04:36:30;;;;;;;8.13;7.28;;;5.70;99.90;;;;;;5002549;28;20057;-75
2021/12/04 04:39:23;;;;;;;10.25;8.43;;;5.70;99.90;;;;;;5003539;28;20053;-75
2021/12/04 04:58:24;;;;;;;11.90;9.85;;;5.80;99.90;;;;;;4989384;28;20687;-75
2021/12/04 05:01:13;;;;;;;8.75;7.93;;;5.70;99.90;;;;;;4974841;28;20045;-75
2021/12/04 05:14:39;;;;;;;10.80;8.70;;;5.80;99.90;;;;;;4986252;28;20046;-75
2021/12/04 05:17:15;;;;;;;8.68;7.97;;;5.80;99.90;;;;;;4987322;28;20049;-75
2021/12/04 05:19:52;;;;;;;10.65;8.57;;;5.80;99.90;;;;;;4985945;28;20057;-75
2021/12/04 05:22:17;;;;;;;7.47;6.55;;;5.70;99.90;;;;;;4985815;28;20117;-75
2021/12/04 05:24:43;;;;;;;13.07;8.90;;;5.70;99.90;;;;;;4987076;28;20129;-75
2021/12/04 05:27:09;;;;;;;10.05;8.88;;;5.70;99.90;;;;;;4985669;28;20595;-75
2021/12/04 05:29:35;;;;;;;8.77;8.00;;;5.80;99.90;;;;;;4972984;28;20093;-75
2021/12/04 05:32:02;;;;;;;5.88;5.47;;;5.80;99.90;;;;;;4982666;28;20049;-75
2021/12/04 05:34:29;;;;;;;14.55;8.35;;;5.80;99.90;;;;;;4987002;28;20034;-75
2021/12/04 05:36:55;;;;;;;10.68;9.73;;;5.80;99.90;;;;;;4985834;28;20042;-75
2021/12/04 05:39:20;;;;;;;9.43;8.25;;;5.80;99.90;;;;;;4986986;28;20747;-76
2021/12/04 05:41:46;;;;;;;8.85;8.15;;;5.80;99.90;;;;;;4987350;28;20049;-75
2021/12/04 05:44:14;;;;;;;9.05;7.80;;;5.80;99.90;;;;;;4986284;28;20085;-75
2021/12/04 05:46:47;;;;;;;8.43;7.65;;;5.80;99.90;;;;;;4986894;28;20383;-75
2021/12/04 05:50:26;;;;;;;11.35;7.60;;;5.80;99.90;;;;;;4986186;28;20410;-75
2021/12/04 05:57:09;;;;;;;6.95;6.45;;;5.70;99.90;;;;;;4986539;28;20046;-75
2021/12/04 05:59:36;;;;;;;8.20;7.03;;;5.70;99.90;;;;;;4969288;28;20081;-75
2021/12/04 06:02:03;;;;;;;12.00;8.43;;;5.80;99.90;;;;;;4986320;28;20049;-75
2021/12/04 06:04:29;;;;;;;11.82;8.02;;;5.80;99.90;;;;;;4986033;28;20057;-75
2021/12/04 06:06:54;;;;;;;9.52;6.55;;;5.80;99.90;;;;;;4985164;28;20422;-75
2021/12/04 06:09:20;;;;;;;9.02;6.88;;;5.80;99.90;;;;;;4969013;28;20414;-75
2021/12/04 06:11:46;;;;;;;6.70;6.20;;;5.80;99.90;;;;;;4987077;28;20426;-75
2021/12/04 06:14:12;;;;;;;10.27;8.85;;;5.80;99.90;;;;;;4986589;28;20045;-75
2021/12/04 06:16:38;;;;;;;8.15;7.32;;;5.80;99.90;;;;;;4968971;28;20473;-75
2021/12/04 06:19:26;;;;;;;8.07;7.47;;;5.70;99.90;;;;;;4986029;28;20118;-75
2021/12/04 06:24:36;;;;;;;9.75;8.73;;;5.70;99.90;;;;;;4986189;28;20145;-75
2021/12/04 06:27:02;;;;;;;7.85;6.63;;;5.80;99.90;;;;;;4986090;28;20069;-75
2021/12/04 06:29:28;;;;;;;10.10;7.95;;;5.80;99.90;;;;;;4986063;28;20100;-76
2021/12/04 06:31:54;;;;;;;9.10;7.57;;;5.70;99.90;;;;;;4984405;28;20534;-75
2021/12/04 06:34:20;;;;;;;12.57;6.75;;;5.80;99.90;;;;;;4986594;28;20038;-75
2021/12/04 06:36:45;;;;;;;9.65;8.82;;;5.80;99.90;;;;;;4983868;28;20545;-75
2021/12/04 06:39:11;;;;;;;7.72;6.22;;;5.80;99.90;;;;;;4984723;28;20441;-75
2021/12/04 06:41:36;;;;;;;7.85;6.20;;;5.80;99.90;;;;;;4985991;28;20046;-75
2021/12/04 06:44:02;;;;;;;10.05;7.43;;;5.80;99.90;;;;;;4985550;28;20435;-75
2021/12/04 06:46:29;;;;;;;8.48;7.60;;;5.80;99.90;;;;;;4985781;28;20050;-75
2021/12/04 06:49:04;;;;;;;14.43;7.38;;;5.80;99.90;;;;;;4985524;28;20047;-75
2021/12/04 06:51:39;;;;;;;11.45;8.90;;;5.70;99.90;;;;;;4983731;28;20137;-75
2021/12/04 06:54:10;;;;;;;11.57;9.07;;;5.70;99.90;;;;;;4984147;28;20110;-75
2021/12/04 06:56:37;;;;;;;9.95;6.95;;;5.80;99.90;;;;;;4984161;28;20088;-75
2021/12/04 06:59:08;;;;;;;5.93;5.30;;;5.70;99.90;;;;;;4985366;28;20050;-75
2021/12/04 07:01:34;;;;;;;7.07;6.43;;;5.70;99.90;;;;;;4985522;28;20050;-75
2021/12/04 07:04:00;;;;;;;6.65;6.05;;;5.70;99.90;;;;;;4985084;28;20069;-75
2021/12/04 07:06:26;;;;;;;14.65;8.90;;;5.80;99.90;;;;;;4991613;28;20494;-75
2021/12/04 07:08:51;;;;;;;19.48;8.63;;;5.70;99.90;;;;;;5004480;28;20473;-75
2021/12/04 07:11:17;;;;;;;9.82;6.32;;;5.70;99.90;;;;;;4987800;28;20120;-76
2021/12/04 07:13:43;;;;;;;10.25;6.00;;;5.70;99.90;;;;;;4987341;28;20490;-78
2021/12/04 07:16:11;;;;;;;10.45;6.18;;;5.70;99.90;;;;;;5004352;28;20061;-79
2021/12/04 07:18:38;;;;;;;11.13;8.38;;;5.70;99.90;;;;;;4987037;28;20057;-78
2021/12/04 07:21:03;;;;;;;23.55;6.35;;;5.70;99.90;;;;;;4978810;28;20050;-78
2021/12/04 07:23:29;;;;;;;11.55;8.63;;;5.70;99.90;;;;;;4967891;28;20057;-79
2021/12/04 07:25:56;;;;;;;7.95;6.47;;;5.80;99.90;;;;;;4984992;28;20042;-78
2021/12/04 07:28:22;;;;;;;7.85;6.50;;;5.80;99.90;;;;;;4971322;28;20126;-78
2021/12/04 07:30:47;;;;;;;8.90;7.28;;;5.70;99.90;;;;;;4987545;28;20042;-79
2021/12/04 07:33:13;;;;;;;10.32;7.80;;;5.70;99.90;;;;;;4983997;28;20045;-79
2021/12/04 07:35:38;;;;;;;8.95;8.25;;;5.70;99.90;;;;;;4985946;28;20103;-79
2021/12/04 07:38:04;;;;;;;9.98;8.65;;;5.70;99.90;;;;;;5004248;28;20188;-78
2021/12/04 07:40:29;;;;;;;16.35;9.82;;;5.70;99.90;;;;;;5004361;28;20111;-78
2021/12/04 07:42:55;;;;;;;7.88;6.38;;;5.70;99.90;;;;;;5004214;28;20046;-78
2021/12/04 07:45:21;;;;;;;8.05;7.15;;;5.70;99.90;;;;;;5004593;28;20053;-79
2021/12/04 07:47:47;;;;;;;7.68;7.18;;;5.70;99.90;;;;;;5004858;28;20756;-78
2021/12/04 07:50:14;;;;;;;8.90;7.70;;;5.70;99.90;;;;;;5004277;28;20426;-78
2021/12/04 07:52:40;;;;;;;13.15;8.85;;;5.70;99.90;;;;;;5003093;28;20045;-79
2021/12/04 07:55:08;;;;;;;15.98;7.20;;;5.70;99.90;;;;;;5003987;28;20121;-78
2021/12/04 07:57:34;;;;;;;10.90;8.05;;;5.70;99.90;;;;;;5004326;28;20045;-77
2021/12/04 08:00:00;;;;;;;10.23;7.90;;;5.70;99.90;;;;;;4986227;28;20052;-79
2021/12/04 08:02:26;;;;;;;10.75;8.60;;;5.70;99.90;;;;;;4986486;28;20056;-79
2021/12/04 08:04:52;;;;;;;11.07;8.93;;;5.70;99.90;;;;;;5003582;28;20042;-79
2021/12/04 08:07:17;;;;;;;11.88;8.95;;;5.70;99.90;;;;;;5002959;28;20062;-78
2021/12/04 08:09:43;;;;;;;9.63;8.70;;;5.70;99.90;;;;;;5004377;28;20045;-78
2021/12/04 08:12:10;;;;;;;11.55;7.63;;;5.70;99.90;;;;;;5004010;28;20473;-79
2021/12/04 08:14:37;;;;;;;8.80;7.00;;;5.70;99.90;;;;;;5004158;28;20076;-78
2021/12/04 08:17:03;;;;;;;12.32;6.88;;;5.70;99.90;;;;;;5003562;28;20038;-78
2021/12/04 08:19:28;;;;;;;5.60;5.10;;;5.70;99.90;;;;;;5003930;28;20061;-79
2021/12/04 08:21:54;;;;;;;8.02;7.05;;;5.70;99.90;;;;;;5002405;28;20049;-79
2021/12/04 08:24:20;;;;;;;8.18;7.30;;;5.70;99.90;;;;;;5004237;28;20041;-79
2021/12/04 08:26:47;;;;;;;6.82;6.28;;;5.70;99.90;;;;;;4986568;28;20061;-80
2021/12/04 08:29:13;;;;;;;8.30;7.30;;;5.70;99.90;;;;;;4976164;28;20057;-80
2021/12/04 08:31:39;;;;;;;6.78;6.15;;;5.70;99.90;;;;;;4969383;28;20043;-80
2021/12/04 08:34:05;;;;;;;13.50;8.20;;;5.70;99.90;;;;;;4986409;28;20073;-80
2021/12/04 08:36:32;;;;;;;9.40;7.10;;;5.70;99.90;;;;;;4968940;28;20055;-82
2021/12/04 08:39:03;;;;;;;5.32;4.90;;;5.70;99.90;;;;;;4969808;28;20051;-82
2021/12/04 08:41:29;;;;;;;11.57;8.00;;;5.70;99.90;;;;;;4996795;28;20121;-79
2021/12/04 08:43:55;;;;;;;10.52;5.95;;;5.70;99.90;;;;;;5006956;28;20113;-80
2021/12/04 08:46:22;;;;;;;9.77;6.18;;;5.70;99.90;;;;;;4990154;28;20490;-81
2021/12/04 08:48:54;;;;;;;13.98;6.88;;;5.80;99.90;;;;;;4990303;28;20107;-81
2021/12/04 08:51:21;;;;;;;5.70;5.30;;;5.80;99.90;;;;;;4989313;28;20042;-79
2021/12/04 08:53:48;;;;;;;7.88;7.18;;;5.80;99.90;;;;;;5007790;28;20053;-75
2021/12/04 08:56:14;;;;;;;13.88;8.95;;;5.80;99.90;;;;;;4989358;28;20180;-75
2021/12/04 08:58:41;;;;;;;9.25;8.40;;;5.80;99.90;;;;;;4989948;28;20478;-78
2021/12/04 09:01:13;;;;;;;7.75;6.97;;;5.80;99.90;;;;;;5006613;28;20072;-75
2021/12/04 09:03:45;;;;;;;10.23;9.25;;;5.80;99.90;;;;;;5006734;28;20038;-76
2021/12/04 09:06:11;;;;;;;6.22;5.20;;;5.70;99.90;;;;;;5005805;28;20057;-78
2021/12/04 09:08:38;;;;;;;6.60;5.63;;;5.80;99.90;;;;;;5006741;28;20600;-76
2021/12/04 09:11:08;;;;;;;17.50;7.88;;;5.80;99.90;;;;;;4989422;28;20126;-76
2021/12/04 09:13:35;;;;;;;6.82;6.20;;;5.80;99.90;;;;;;4988685;28;20046;-75
2021/12/04 09:16:01;;;;;;;6.90;5.57;;;5.80;99.90;;;;;;4973122;28;20050;-75
2021/12/04 09:18:27;;;;;;;5.00;4.68;;;5.80;99.90;;;;;;5007192;28;20406;-79
2021/12/04 09:20:54;;;;;;;8.93;8.05;;;5.80;99.90;;;;;;4974585;28;20050;-76
2021/12/04 09:23:21;;;;;;;8.77;5.90;;;5.80;99.90;;;;;;4983010;28;20042;-76
2021/12/04 09:25:52;;;;;;;10.85;7.40;;;5.80;99.90;;;;;;4984629;28;20042;-76
2021/12/04 09:28:22;;;;;;;6.18;5.38;;;5.80;99.90;;;;;;4969030;28;20066;-76
2021/12/04 10:11:57;;;;;;;6.57;5.47;;;5.80;99.90;;;;;;4968908;28;20061;-75
2021/12/04 10:20:15;;;;;;;7.53;5.70;;;5.80;99.90;;;;;;4968108;28;20608;-75
2021/12/04 10:23:08;;;;;;;4.25;3.92;;;5.80;99.90;;;;;;4952623;28;20104;-75
2021/12/04 10:33:46;;;;;;;11.45;9.02;;;5.80;99.90;;;;;;4986041;28;20509;-75
2021/12/04 10:36:24;;;;;;;9.00;6.47;;;5.80;99.90;;;;;;4983196;28;20089;-75
2021/12/04 10:38:50;;;;;;;9.00;8.13;;;5.90;99.90;;;;;;4985305;28;20442;-75
2021/12/04 10:41:16;;;;;;;6.05;5.60;;;5.80;99.90;;;;;;4986176;28;20042;-75
2021/12/04 10:43:42;;;;;;;9.15;6.65;;;5.80;99.90;;;;;;4984791;28;20108;-75
2021/12/04 10:46:15;;;;;;;9.55;7.65;;;5.90;99.90;;;;;;4985481;28;20046;-75
2021/12/04 10:48:51;;;;;;;7.13;6.40;;;5.80;99.90;;;;;;4985757;28;20410;-75
2021/12/04 10:53:50;;;;;;;4.80;4.43;;;5.80;99.90;;;;;;4984296;28;20050;-73
2021/12/04 10:56:50;;;;;;;10.68;7.43;;;5.90;99.90;;;;;;4984423;28;20050;-74
2021/12/04 11:27:04;;;;;;;8.75;6.13;;;5.90;99.90;;;;;;5142721;27;20115;-73
2021/12/04 11:34:59;;;;;;;4.72;4.28;;;5.90;99.90;;;;;;5103793;28;20751;-72
2021/12/04 11:38:05;;;;;;;5.57;5.18;;;5.90;99.90;;;;;;5103260;28;20123;-73
2021/12/04 11:43:09;;;;;;;17.75;7.13;;;5.90;99.90;;;;;;5121779;28;20071;-76
2021/12/04 11:46:00;;;;;;;7.50;6.70;;;5.90;99.90;;;;;;5103459;28;20047;-75
2021/12/04 11:48:41;;;;;;;8.02;5.40;;;5.80;99.90;;;;;;5103230;28;20480;-75
2021/12/04 11:51:16;;;;;;;7.10;6.55;;;5.90;99.90;;;;;;5120515;28;20521;-76
2021/12/04 11:53:42;;;;;;;9.32;5.25;;;5.90;99.90;;;;;;5121843;28;20443;-75
2021/12/04 11:56:19;;;;;;;7.95;7.13;;;5.90;99.90;;;;;;5120737;28;20078;-75
2021/12/04 11:58:47;;;;;;;5.55;5.05;;;5.90;99.90;;;;;;5121725;28;20039;-75
2021/12/04 12:01:22;;;;;;;11.10;5.75;;;5.90;99.90;;;;;;5085728;28;20043;-75
2021/12/04 12:03:53;;;;;;;8.07;6.38;;;5.90;99.90;;;;;;5103586;28;20419;-73
2021/12/04 12:06:33;;;;;;;6.35;5.10;;;5.90;99.90;;;;;;5102416;28;20047;-72
2021/12/04 12:09:12;;;;;;;5.65;5.25;;;5.90;99.90;;;;;;5120552;28;20399;-74
2021/12/04 12:11:50;;;;;;;7.90;6.57;;;5.90;99.90;;;;;;5121406;28;20035;-75
2021/12/04 12:14:20;;;;;;;7.70;5.40;;;5.90;99.90;;;;;;5103351;28;20047;-75
2021/12/04 12:16:49;;;;;;;7.57;5.03;;;5.90;99.90;;;;;;5086865;28;20086;-75
2021/12/04 12:19:27;;;;;;;8.07;7.28;;;5.90;99.90;;;;;;5102641;28;20059;-74
2021/12/04 12:27:45;;;;;;;7.63;7.07;;;5.90;99.90;;;;;;5120465;28;20134;-76
2021/12/04 12:33:37;;;;;;;4.78;3.65;;;5.90;99.90;;;;;;5081816;28;20066;-76
2021/12/04 12:36:19;;;;;;;11.50;6.88;;;6.00;99.90;;;;;;5096553;28;20040;-77
2021/12/04 12:39:06;;;;;;;9.38;8.38;;;6.00;99.90;;;;;;5086399;28;20071;-76
2021/12/04 12:41:45;;;;;;;6.45;5.85;;;6.00;99.90;;;;;;5085292;28;20054;-74
2021/12/04 12:44:29;;;;;;;26.27;5.03;;;6.00;99.90;;;;;;5086304;28;20040;-73
2021/12/04 12:46:58;;;;;;;15.70;8.50;;;6.00;99.90;;;;;;5068205;28;20413;-75
2021/12/04 12:49:41;;;;;;;5.78;5.25;;;6.00;99.90;;;;;;5086660;28;20101;-75
2021/12/04 12:52:15;;;;;;;9.52;5.68;;;6.00;99.90;;;;;;5068198;28;20051;-75
2021/12/04 12:54:58;;;;;;;5.88;4.20;;;6.00;99.90;;;;;;5051518;28;20109;-76
2021/12/04 12:57:25;;;;;;;6.88;6.30;;;6.00;99.90;;;;;;5051177;28;20047;-76
2021/12/04 13:14:30;;;;;;;9.25;5.95;;;6.10;99.90;;;;;;5067339;28;20044;-76
2021/12/04 13:17:05;;;;;;;7.95;6.80;;;6.00;99.90;;;;;;5085945;28;20401;-76
2021/12/04 13:19:32;;;;;;;6.25;5.55;;;6.00;99.90;;;;;;5066731;28;20048;-76
2021/12/04 13:22:03;;;;;;;9.65;6.57;;;6.00;99.90;;;;;;5085462;28;20035;-76
2021/12/04 13:24:32;;;;;;;12.80;6.82;;;6.00;99.90;;;;;;5067629;28;20113;-76
2021/12/04 13:29:38;;;;;;;5.32;4.82;;;6.00;99.90;;;;;;5081243;28;20051;-77
2021/12/04 13:32:04;;;;;;;7.10;6.55;;;6.00;99.90;;;;;;5100865;28;20409;-77
2021/12/04 13:34:31;;;;;;;8.23;6.68;;;6.00;99.90;;;;;;5081096;28;20060;-75
2021/12/04 13:36:58;;;;;;;8.77;5.20;;;6.00;99.90;;;;;;5085634;28;20044;-75
2021/12/04 13:39:24;;;;;;;7.85;6.45;;;6.10;99.90;;;;;;5085118;28;20044;-77
2021/12/04 13:41:53;;;;;;;10.23;6.20;;;6.00;99.90;;;;;;5071719;28;20054;-79
2021/12/04 13:44:21;;;;;;;6.25;5.15;;;6.00;99.90;;;;;;5086169;28;20044;-81
2021/12/04 13:46:53;;;;;;;11.82;6.97;;;6.00;99.90;;;;;;5086275;28;20043;-83
2021/12/04 13:49:39;;;;;;;;;;;6.00;99.90;;;;;;5089735;28;20119;-79
2021/12/04 13:52:08;;;;;;;7.03;6.43;;;6.00;99.90;;;;;;5069691;28;19919;-82
2021/12/04 13:54:44;;;;;;;6.60;6.00;;;6.00;99.90;;;;;;5087403;28;20069;-77
2021/12/04 13:57:12;;;;;;;9.20;8.38;;;6.10;99.90;;;;;;5104988;28;20123;-79
2021/12/04 13:59:38;;;;;;;5.53;5.18;;;6.00;99.90;;;;;;5105039;28;20054;-81
2021/12/04 14:02:04;;;;;;;5.60;5.15;;;6.10;99.90;;;;;;5102981;28;20044;-80
2021/12/04 14:04:30;;;;;;;5.85;5.45;;;6.10;99.90;;;;;;5085616;28;20032;-81
2021/12/04 14:07:01;;;;;;;23.63;6.68;;;6.00;99.90;;;;;;5084464;28;20153;-79
2021/12/04 14:09:35;;;;;;;6.05;5.43;;;6.00;99.90;;;;;;5078042;28;20050;-75
2021/12/04 14:12:02;;;;;;;6.78;6.22;;;6.00;99.90;;;;;;5101166;28;20093;-76
2021/12/04 14:14:30;;;;;;;5.63;5.13;;;6.00;99.90;;;;;;5085019;28;20478;-73
2021/12/04 14:17:04;;;;;;;6.35;5.80;;;6.00;99.90;;;;;;5071913;28;20040;-75
2021/12/04 14:19:30;;;;;;;6.47;5.65;;;6.00;99.90;;;;;;5091760;28;20093;-75
2021/12/04 14:22:16;;;;;;;5.15;4.65;;;6.00;99.90;;;;;;5103001;28;20089;-75
2021/12/04 14:24:56;;;;;;;6.07;5.55;;;6.10;99.90;;;;;;5103394;28;20046;-74
2021/12/04 14:27:31;;;;;;;7.85;7.05;;;6.10;99.90;;;;;;5081533;28;20131;-74
2021/12/04 14:30:03;;;;;;;18.20;6.78;;;6.10;99.90;;;;;;5081544;28;20031;-74
2021/12/04 14:32:31;;;;;;;3.78;3.58;;;6.10;99.90;;;;;;5084595;28;20109;-74
2021/12/04 14:35:03;;;;;;;5.85;5.28;;;6.10;99.90;;;;;;5071044;28;20044;-74
2021/12/04 14:37:32;;;;;;;;;;;6.10;99.90;;;;;;5083127;28;20040;-74
2021/12/04 14:39:58;;;;;;;8.15;7.15;;;6.10;99.90;;;;;;5089576;28;19923;-74
2021/12/04 14:42:27;;;;;;;9.75;6.50;;;6.10;99.90;;;;;;5095666;28;20394;-74
2021/12/04 14:44:59;;;;;;;9.77;5.38;;;6.10;99.90;;;;;;5102647;28;20046;-74
2021/12/04 14:47:29;;;;;;;;;;;6.10;99.90;;;;;;5081732;28;20071;-74
2021/12/04 14:50:00;;;;;;;9.00;6.75;;;6.10;99.90;;;;;;5053181;28;19962;-73
2021/12/04 14:52:31;;;;;;;6.70;5.45;;;6.10;99.90;;;;;;5082028;28;20043;-73
2021/12/04 14:54:57;;;;;;;6.35;5.72;;;6.10;99.90;;;;;;5085239;28;20047;-73
2021/12/04 14:57:26;;;;;;;9.18;5.85;;;6.10;99.90;;;;;;5077139;28;20091;-73
2021/12/04 15:00:15;;;;;;;9.18;8.05;;;6.10;99.90;;;;;;5091225;28;20044;-73
2021/12/04 15:02:52;;;;;;;5.80;5.40;;;6.10;99.90;;;;;;5090646;28;20731;-73
2021/12/04 15:05:40;;;;;;;9.65;6.97;;;6.10;99.90;;;;;;5076581;28;20044;-73
2021/12/04 15:08:23;;;;;;;7.60;6.00;;;6.10;99.90;;;;;;5103609;28;20040;-73
2021/12/04 15:11:25;;;;;;;6.65;6.10;;;6.10;99.90;;;;;;5083194;28;20493;-73
2021/12/04 15:13:57;;;;;;;6.63;5.90;;;6.10;99.90;;;;;;5047569;28;20078;-73
2021/12/04 15:16:33;;;;;;;6.75;5.43;;;6.10;99.90;;;;;;5100438;28;20095;-73
2021/12/04 15:19:07;;;;;;;8.20;6.05;;;6.10;99.90;;;;;;5076394;28;20059;-73
2021/12/04 15:21:41;;;;;;;19.00;8.75;;;6.10;99.90;;;;;;5063264;28;20184;-73
2021/12/04 15:24:12;;;;;;;9.50;7.25;;;6.10;99.90;;;;;;5103860;28;20084;-73
2021/12/04 15:26:41;;;;;;;7.63;6.85;;;6.10;99.90;;;;;;5100904;28;20048;-73
2021/12/04 15:29:14;;;;;;;8.60;4.70;;;6.10;99.90;;;;;;5091351;28;20044;-73
2021/12/04 15:31:40;;;;;;;9.48;6.50;;;6.10;99.90;;;;;;5072507;28;20052;-73
2021/12/04 15:34:06;;;;;;;12.70;6.63;;;6.10;99.90;;;;;;5065885;28;20498;-76
2021/12/04 15:36:37;;;;;;;7.88;6.10;;;6.10;99.90;;;;;;5084926;28;20040;-73
2021/12/04 15:39:11;;;;;;;5.45;5.05;;;6.10;99.90;;;;;;5095201;28;20036;-73
2021/12/04 15:41:57;;;;;;;21.15;6.43;;;6.10;99.90;;;;;;5064569;28;20040;-73
2021/12/04 15:44:47;;;;;;;11.65;7.57;;;6.10;99.90;;;;;;5065960;28;20047;-74
2021/12/04 15:50:13;;;;;;;11.00;7.30;;;6.10;99.90;;;;;;5089249;28;20067;-73
2021/12/04 15:55:40;;;;;;;10.57;6.80;;;6.20;99.90;;;;;;5066166;28;20105;-73
2021/12/04 15:58:18;;;;;;;8.30;5.95;;;6.20;99.90;;;;;;5083908;28;20056;-73
2021/12/04 16:00:53;;;;;;;8.18;6.93;;;6.20;99.90;;;;;;5065692;28;20071;-73
2021/12/04 16:03:25;;;;;;;12.25;7.15;;;6.20;99.90;;;;;;5065666;28;20122;-73
2021/12/04 16:05:53;;;;;;;8.35;6.13;;;6.20;99.90;;;;;;5048064;28;20043;-75
2021/12/04 16:08:30;;;;;;;11.90;7.53;;;6.20;99.90;;;;;;5084527;28;20048;-73
2021/12/04 16:11:01;;;;;;;15.75;6.75;;;6.20;99.90;;;;;;5076107;28;20051;-73